sensor_id;sensor_type;location;lat;lon;timestamp;P1;durP1;ratioP1;P2;durP2;ratioP2
45684;SDS011;46836;48.388;16.210;2022-11-25T00:01:37;6.78;;;4.53;;
45684;SDS011;46836;48.388;16.210;2022-11-25T00:04:05;4.82;;;4.10;;
45684;SDS011;46836;48.388;16.210;2022-11-25T00:06:32;5.22;;;4.70;;
45684;SDS011;46836;48.388;16.210;2022-11-25T00:09:05;4.78;;;4.03;;
45684;SDS011;46836;48.388;16.210;2022-11-25T00:11:35;4.35;;;3.95;;
45684;SDS011;46836;48.388;16.210;2022-11-25T00:14:04;4.97;;;4.07;;
45684;SDS011;46836;48.388;16.210;2022-11-25T00:16:33;3.80;;;3.50;;
45684;SDS011;46836;48.388;16.210;2022-11-25T00:19:00;5.55;;;4.60;;
45684;SDS011;46836;48.388;16.210;2022-11-25T00:21:28;4.57;;;4.15;;
45684;SDS011;46836;48.388;16.210;2022-11-25T00:23:59;5.90;;;4.32;;
45684;SDS011;46836;48.388;16.210;2022-11-25T00:26:28;5.00;;;4.30;;
45684;SDS011;46836;48.388;16.210;2022-11-25T00:29:00;5.82;;;4.47;;
45684;SDS011;46836;48.388;16.210;2022-11-25T00:31:30;4.88;;;4.38;;
45684;SDS011;46836;48.388;16.210;2022-11-25T00:34:01;4.90;;;4.45;;
45684;SDS011;46836;48.388;16.210;2022-11-25T00:36:30;5.32;;;4.47;;
45684;SDS011;46836;48.388;16.210;2022-11-25T00:38:59;5.13;;;4.20;;
45684;SDS011;46836;48.388;16.210;2022-11-25T00:41:29;5.88;;;4.05;;
45684;SDS011;46836;48.388;16.210;2022-11-25T00:44:16;4.90;;;4.40;;
45684;SDS011;46836;48.388;16.210;2022-11-25T00:49:43;9.35;;;5.38;;
45684;SDS011;46836;48.388;16.210;2022-11-25T00:52:12;5.15;;;4.63;;
45684;SDS011;46836;48.388;16.210;2022-11-25T00:54:46;5.78;;;5.10;;
45684;SDS011;46836;48.388;16.210;2022-11-25T00:57:16;7.75;;;5.18;;
45684;SDS011;46836;48.388;16.210;2022-11-25T00:59:44;6.30;;;5.18;;
45684;SDS011;46836;48.388;16.210;2022-11-25T01:02:12;5.00;;;4.35;;
45684;SDS011;46836;48.388;16.210;2022-11-25T01:04:41;5.93;;;4.60;;
45684;SDS011;46836;48.388;16.210;2022-11-25T01:07:08;6.78;;;5.40;;
45684;SDS011;46836;48.388;16.210;2022-11-25T01:09:35;6.10;;;4.32;;
45684;SDS011;46836;48.388;16.210;2022-11-25T01:12:03;5.13;;;4.60;;
45684;SDS011;46836;48.388;16.210;2022-11-25T01:14:30;5.80;;;4.35;;
45684;SDS011;46836;48.388;16.210;2022-11-25T01:16:58;8.65;;;4.82;;
45684;SDS011;46836;48.388;16.210;2022-11-25T01:19:25;6.93;;;4.65;;
45684;SDS011;46836;48.388;16.210;2022-11-25T01:21:52;5.80;;;4.47;;
45684;SDS011;46836;48.388;16.210;2022-11-25T01:24:19;4.25;;;3.85;;
45684;SDS011;46836;48.388;16.210;2022-11-25T01:26:49;5.88;;;4.55;;
45684;SDS011;46836;48.388;16.210;2022-11-25T01:29:17;5.20;;;4.53;;
45684;SDS011;46836;48.388;16.210;2022-11-25T01:31:44;4.80;;;4.30;;
45684;SDS011;46836;48.388;16.210;2022-11-25T01:34:13;5.47;;;4.97;;
45684;SDS011;46836;48.388;16.210;2022-11-25T01:36:48;6.22;;;4.60;;
45684;SDS011;46836;48.388;16.210;2022-11-25T01:39:22;8.02;;;5.65;;
45684;SDS011;46836;48.388;16.210;2022-11-25T01:41:58;6.05;;;4.82;;
45684;SDS011;46836;48.388;16.210;2022-11-25T01:44:26;6.40;;;5.13;;
45684;SDS011;46836;48.388;16.210;2022-11-25T01:52:11;7.00;;;5.50;;
45684;SDS011;46836;48.388;16.210;2022-11-25T01:54:46;5.43;;;4.60;;
45684;SDS011;46836;48.388;16.210;2022-11-25T01:57:23;6.38;;;4.90;;
45684;SDS011;46836;48.388;16.210;2022-11-25T01:59:58;5.70;;;4.85;;
45684;SDS011;46836;48.388;16.210;2022-11-25T02:02:27;7.03;;;5.60;;
45684;SDS011;46836;48.388;16.210;2022-11-25T02:04:55;7.53;;;4.95;;
45684;SDS011;46836;48.388;16.210;2022-11-25T02:07:35;6.05;;;5.10;;
45684;SDS011;46836;48.388;16.210;2022-11-25T02:10:06;6.45;;;5.30;;
45684;SDS011;46836;48.388;16.210;2022-11-25T02:12:39;5.15;;;4.65;;
45684;SDS011;46836;48.388;16.210;2022-11-25T02:15:08;6.18;;;4.93;;
45684;SDS011;46836;48.388;16.210;2022-11-25T02:17:36;6.90;;;5.35;;
45684;SDS011;46836;48.388;16.210;2022-11-25T02:20:06;6.95;;;4.63;;
45684;SDS011;46836;48.388;16.210;2022-11-25T02:25:24;6.28;;;5.22;;
45684;SDS011;46836;48.388;16.210;2022-11-25T02:28:00;6.20;;;4.82;;
45684;SDS011;46836;48.388;16.210;2022-11-25T02:30:35;5.47;;;4.88;;
45684;SDS011;46836;48.388;16.210;2022-11-25T02:33:03;5.88;;;5.28;;
45684;SDS011;46836;48.388;16.210;2022-11-25T02:35:34;5.85;;;5.10;;
45684;SDS011;46836;48.388;16.210;2022-11-25T02:40:42;7.35;;;5.47;;
45684;SDS011;46836;48.388;16.210;2022-11-25T02:43:24;6.03;;;5.43;;
45684;SDS011;46836;48.388;16.210;2022-11-25T02:45:59;7.55;;;5.18;;
45684;SDS011;46836;48.388;16.210;2022-11-25T02:48:30;6.30;;;5.70;;
45684;SDS011;46836;48.388;16.210;2022-11-25T02:51:20;5.68;;;4.53;;
45684;SDS011;46836;48.388;16.210;2022-11-25T02:53:50;6.95;;;5.45;;
45684;SDS011;46836;48.388;16.210;2022-11-25T02:56:17;7.15;;;6.13;;
45684;SDS011;46836;48.388;16.210;2022-11-25T02:58:46;8.70;;;5.05;;
45684;SDS011;46836;48.388;16.210;2022-11-25T03:01:13;8.45;;;5.85;;
45684;SDS011;46836;48.388;16.210;2022-11-25T03:03:41;6.65;;;5.93;;
45684;SDS011;46836;48.388;16.210;2022-11-25T03:06:08;8.95;;;5.75;;
45684;SDS011;46836;48.388;16.210;2022-11-25T03:08:35;9.93;;;6.05;;
45684;SDS011;46836;48.388;16.210;2022-11-25T03:11:03;8.80;;;6.55;;
45684;SDS011;46836;48.388;16.210;2022-11-25T03:13:31;6.75;;;5.45;;
45684;SDS011;46836;48.388;16.210;2022-11-25T03:15:58;8.10;;;5.88;;
45684;SDS011;46836;48.388;16.210;2022-11-25T03:18:25;5.80;;;5.20;;
45684;SDS011;46836;48.388;16.210;2022-11-25T03:20:53;8.52;;;6.18;;
45684;SDS011;46836;48.388;16.210;2022-11-25T03:23:21;7.90;;;6.13;;
45684;SDS011;46836;48.388;16.210;2022-11-25T03:25:49;7.53;;;6.15;;
45684;SDS011;46836;48.388;16.210;2022-11-25T03:28:16;7.60;;;5.20;;
45684;SDS011;46836;48.388;16.210;2022-11-25T03:30:43;6.95;;;5.50;;
45684;SDS011;46836;48.388;16.210;2022-11-25T03:33:10;7.45;;;6.32;;
45684;SDS011;46836;48.388;16.210;2022-11-25T03:35:37;7.85;;;5.35;;
45684;SDS011;46836;48.388;16.210;2022-11-25T03:38:04;12.13;;;5.40;;
45684;SDS011;46836;48.388;16.210;2022-11-25T03:40:30;8.20;;;5.28;;
45684;SDS011;46836;48.388;16.210;2022-11-25T03:42:57;8.30;;;6.03;;
45684;SDS011;46836;48.388;16.210;2022-11-25T03:45:24;8.50;;;5.75;;
45684;SDS011;46836;48.388;16.210;2022-11-25T03:47:51;5.97;;;5.13;;
45684;SDS011;46836;48.388;16.210;2022-11-25T03:50:18;6.28;;;5.68;;
45684;SDS011;46836;48.388;16.210;2022-11-25T03:52:45;9.25;;;6.47;;
45684;SDS011;46836;48.388;16.210;2022-11-25T03:55:12;6.70;;;4.88;;
45684;SDS011;46836;48.388;16.210;2022-11-25T03:57:39;7.13;;;5.75;;
45684;SDS011;46836;48.388;16.210;2022-11-25T04:00:07;7.20;;;5.40;;
45684;SDS011;46836;48.388;16.210;2022-11-25T04:02:34;6.68;;;5.60;;
45684;SDS011;46836;48.388;16.210;2022-11-25T04:05:01;6.97;;;6.28;;
45684;SDS011;46836;48.388;16.210;2022-11-25T04:07:30;6.95;;;5.15;;
45684;SDS011;46836;48.388;16.210;2022-11-25T04:09:57;5.03;;;4.53;;
45684;SDS011;46836;48.388;16.210;2022-11-25T04:12:25;6.13;;;5.10;;
45684;SDS011;46836;48.388;16.210;2022-11-25T04:15:11;6.47;;;4.97;;
45684;SDS011;46836;48.388;16.210;2022-11-25T04:17:39;8.27;;;5.35;;
45684;SDS011;46836;48.388;16.210;2022-11-25T04:20:07;7.53;;;5.55;;
45684;SDS011;46836;48.388;16.210;2022-11-25T04:22:36;7.68;;;5.45;;
45684;SDS011;46836;48.388;16.210;2022-11-25T04:25:03;5.90;;;5.10;;
45684;SDS011;46836;48.388;16.210;2022-11-25T04:27:30;6.78;;;5.20;;
45684;SDS011;46836;48.388;16.210;2022-11-25T04:29:57;5.65;;;4.95;;
45684;SDS011;46836;48.388;16.210;2022-11-25T04:32:25;6.72;;;5.55;;
45684;SDS011;46836;48.388;16.210;2022-11-25T04:34:52;6.20;;;4.88;;
45684;SDS011;46836;48.388;16.210;2022-11-25T04:37:19;4.60;;;4.20;;
45684;SDS011;46836;48.388;16.210;2022-11-25T04:39:47;6.72;;;4.68;;
45684;SDS011;46836;48.388;16.210;2022-11-25T04:42:14;7.38;;;5.88;;
45684;SDS011;46836;48.388;16.210;2022-11-25T04:45:11;8.82;;;5.85;;
45684;SDS011;46836;48.388;16.210;2022-11-25T04:47:49;6.93;;;4.90;;
45684;SDS011;46836;48.388;16.210;2022-11-25T04:50:18;6.40;;;5.25;;
45684;SDS011;46836;48.388;16.210;2022-11-25T04:52:47;9.05;;;5.32;;
45684;SDS011;46836;48.388;16.210;2022-11-25T04:55:14;7.78;;;5.30;;
45684;SDS011;46836;48.388;16.210;2022-11-25T04:57:41;6.03;;;5.35;;
45684;SDS011;46836;48.388;16.210;2022-11-25T05:00:09;5.72;;;5.20;;
45684;SDS011;46836;48.388;16.210;2022-11-25T05:02:36;5.70;;;4.90;;
45684;SDS011;46836;48.388;16.210;2022-11-25T05:05:03;7.18;;;5.43;;
45684;SDS011;46836;48.388;16.210;2022-11-25T05:07:31;5.75;;;5.15;;
45684;SDS011;46836;48.388;16.210;2022-11-25T05:09:58;5.75;;;4.75;;
45684;SDS011;46836;48.388;16.210;2022-11-25T05:12:26;7.60;;;5.50;;
45684;SDS011;46836;48.388;16.210;2022-11-25T05:14:54;8.05;;;5.22;;
45684;SDS011;46836;48.388;16.210;2022-11-25T05:17:23;6.30;;;5.70;;
45684;SDS011;46836;48.388;16.210;2022-11-25T05:19:52;5.40;;;4.90;;
45684;SDS011;46836;48.388;16.210;2022-11-25T05:22:20;9.73;;;5.20;;
45684;SDS011;46836;48.388;16.210;2022-11-25T05:24:48;5.90;;;4.82;;
45684;SDS011;46836;48.388;16.210;2022-11-25T05:27:16;6.50;;;5.40;;
45684;SDS011;46836;48.388;16.210;2022-11-25T05:29:43;10.45;;;5.68;;
45684;SDS011;46836;48.388;16.210;2022-11-25T05:32:15;11.40;;;4.85;;
45684;SDS011;46836;48.388;16.210;2022-11-25T05:34:43;6.53;;;4.47;;
45684;SDS011;46836;48.388;16.210;2022-11-25T05:37:12;8.25;;;5.78;;
45684;SDS011;46836;48.388;16.210;2022-11-25T05:39:39;6.45;;;5.22;;
45684;SDS011;46836;48.388;16.210;2022-11-25T05:42:06;6.50;;;5.10;;
45684;SDS011;46836;48.388;16.210;2022-11-25T05:44:33;8.30;;;5.90;;
45684;SDS011;46836;48.388;16.210;2022-11-25T05:47:00;7.40;;;6.13;;
45684;SDS011;46836;48.388;16.210;2022-11-25T05:49:27;6.20;;;5.00;;
45684;SDS011;46836;48.388;16.210;2022-11-25T05:51:54;8.77;;;5.97;;
45684;SDS011;46836;48.388;16.210;2022-11-25T05:54:21;8.25;;;6.25;;
45684;SDS011;46836;48.388;16.210;2022-11-25T05:56:48;6.50;;;5.80;;
45684;SDS011;46836;48.388;16.210;2022-11-25T05:59:15;6.18;;;5.57;;
45684;SDS011;46836;48.388;16.210;2022-11-25T06:01:42;7.38;;;5.78;;
45684;SDS011;46836;48.388;16.210;2022-11-25T06:04:09;7.00;;;5.65;;
45684;SDS011;46836;48.388;16.210;2022-11-25T06:06:36;10.00;;;6.78;;
45684;SDS011;46836;48.388;16.210;2022-11-25T06:09:04;22.05;;;17.17;;
45684;SDS011;46836;48.388;16.210;2022-11-25T06:11:31;12.60;;;7.95;;
45684;SDS011;46836;48.388;16.210;2022-11-25T06:13:58;10.55;;;7.85;;
45684;SDS011;46836;48.388;16.210;2022-11-25T06:16:25;13.40;;;10.23;;
45684;SDS011;46836;48.388;16.210;2022-11-25T06:18:53;9.98;;;7.95;;
45684;SDS011;46836;48.388;16.210;2022-11-25T06:21:20;11.00;;;9.20;;
45684;SDS011;46836;48.388;16.210;2022-11-25T06:23:47;13.63;;;9.20;;
45684;SDS011;46836;48.388;16.210;2022-11-25T06:26:16;14.52;;;10.27;;
45684;SDS011;46836;48.388;16.210;2022-11-25T06:28:45;13.10;;;9.73;;
45684;SDS011;46836;48.388;16.210;2022-11-25T06:31:14;10.50;;;8.52;;
45684;SDS011;46836;48.388;16.210;2022-11-25T06:33:45;13.95;;;10.55;;
45684;SDS011;46836;48.388;16.210;2022-11-25T06:36:12;16.85;;;10.88;;
45684;SDS011;46836;48.388;16.210;2022-11-25T06:38:44;20.65;;;10.38;;
45684;SDS011;46836;48.388;16.210;2022-11-25T06:41:15;12.35;;;10.48;;
45684;SDS011;46836;48.388;16.210;2022-11-25T06:43:43;11.90;;;9.77;;
45684;SDS011;46836;48.388;16.210;2022-11-25T06:46:12;14.50;;;10.18;;
45684;SDS011;46836;48.388;16.210;2022-11-25T06:48:48;11.77;;;9.68;;
45684;SDS011;46836;48.388;16.210;2022-11-25T06:51:15;10.63;;;8.93;;
45684;SDS011;46836;48.388;16.210;2022-11-25T06:53:42;10.02;;;8.38;;
45684;SDS011;46836;48.388;16.210;2022-11-25T06:56:13;14.70;;;9.85;;
45684;SDS011;46836;48.388;16.210;2022-11-25T06:58:42;14.50;;;10.43;;
45684;SDS011;46836;48.388;16.210;2022-11-25T07:03:39;13.13;;;9.23;;
45684;SDS011;46836;48.388;16.210;2022-11-25T07:06:08;10.65;;;8.63;;
45684;SDS011;46836;48.388;16.210;2022-11-25T07:08:37;11.00;;;8.25;;
45684;SDS011;46836;48.388;16.210;2022-11-25T07:11:05;10.65;;;8.55;;
45684;SDS011;46836;48.388;16.210;2022-11-25T07:13:44;11.75;;;8.40;;
45684;SDS011;46836;48.388;16.210;2022-11-25T07:16:11;11.70;;;9.23;;
45684;SDS011;46836;48.388;16.210;2022-11-25T07:18:39;12.13;;;8.55;;
45684;SDS011;46836;48.388;16.210;2022-11-25T07:21:08;12.50;;;8.48;;
45684;SDS011;46836;48.388;16.210;2022-11-25T07:23:39;9.95;;;8.75;;
45684;SDS011;46836;48.388;16.210;2022-11-25T07:26:10;10.65;;;9.00;;
45684;SDS011;46836;48.388;16.210;2022-11-25T07:28:39;12.55;;;8.70;;
45684;SDS011;46836;48.388;16.210;2022-11-25T07:31:07;9.13;;;8.23;;
45684;SDS011;46836;48.388;16.210;2022-11-25T07:33:58;9.98;;;7.63;;
45684;SDS011;46836;48.388;16.210;2022-11-25T07:36:31;8.15;;;7.28;;
45684;SDS011;46836;48.388;16.210;2022-11-25T07:39:00;9.15;;;7.18;;
45684;SDS011;46836;48.388;16.210;2022-11-25T07:41:30;9.40;;;7.55;;
45684;SDS011;46836;48.388;16.210;2022-11-25T07:43:58;12.70;;;8.57;;
45684;SDS011;46836;48.388;16.210;2022-11-25T07:46:28;23.10;;;11.63;;
45684;SDS011;46836;48.388;16.210;2022-11-25T07:49:02;15.45;;;10.57;;
45684;SDS011;46836;48.388;16.210;2022-11-25T07:51:32;17.35;;;10.27;;
45684;SDS011;46836;48.388;16.210;2022-11-25T07:54:03;15.50;;;11.15;;
45684;SDS011;46836;48.388;16.210;2022-11-25T07:56:33;18.23;;;11.65;;
45684;SDS011;46836;48.388;16.210;2022-11-25T07:59:01;23.73;;;12.20;;
45684;SDS011;46836;48.388;16.210;2022-11-25T08:01:30;22.08;;;12.38;;
45684;SDS011;46836;48.388;16.210;2022-11-25T08:03:57;29.33;;;12.93;;
45684;SDS011;46836;48.388;16.210;2022-11-25T08:06:37;16.65;;;7.90;;
45684;SDS011;46836;48.388;16.210;2022-11-25T08:09:12;18.08;;;9.90;;
45684;SDS011;46836;48.388;16.210;2022-11-25T08:11:45;12.75;;;9.05;;
45684;SDS011;46836;48.388;16.210;2022-11-25T08:14:13;16.75;;;9.20;;
45684;SDS011;46836;48.388;16.210;2022-11-25T08:16:41;13.98;;;8.35;;
45684;SDS011;46836;48.388;16.210;2022-11-25T08:19:10;18.98;;;8.73;;
45684;SDS011;46836;48.388;16.210;2022-11-25T08:21:39;19.92;;;10.43;;
45684;SDS011;46836;48.388;16.210;2022-11-25T08:24:09;17.33;;;9.95;;
45684;SDS011;46836;48.388;16.210;2022-11-25T08:26:43;8.68;;;7.47;;
45684;SDS011;46836;48.388;16.210;2022-11-25T08:29:11;13.13;;;6.85;;
45684;SDS011;46836;48.388;16.210;2022-11-25T08:31:41;14.07;;;7.30;;
45684;SDS011;46836;48.388;16.210;2022-11-25T08:34:09;10.57;;;7.15;;
45684;SDS011;46836;48.388;16.210;2022-11-25T08:36:47;10.65;;;6.90;;
45684;SDS011;46836;48.388;16.210;2022-11-25T08:39:15;9.05;;;5.88;;
45684;SDS011;46836;48.388;16.210;2022-11-25T08:42:03;7.65;;;6.00;;
45684;SDS011;46836;48.388;16.210;2022-11-25T08:44:31;14.77;;;7.70;;
45684;SDS011;46836;48.388;16.210;2022-11-25T08:46:58;14.38;;;6.28;;
45684;SDS011;46836;48.388;16.210;2022-11-25T08:49:26;8.32;;;6.20;;
45684;SDS011;46836;48.388;16.210;2022-11-25T08:52:01;8.27;;;6.28;;
45684;SDS011;46836;48.388;16.210;2022-11-25T08:54:28;7.40;;;6.60;;
45684;SDS011;46836;48.388;16.210;2022-11-25T08:56:56;8.75;;;7.22;;
45684;SDS011;46836;48.388;16.210;2022-11-25T08:59:23;8.95;;;5.30;;
45684;SDS011;46836;48.388;16.210;2022-11-25T09:01:50;8.00;;;6.35;;
45684;SDS011;46836;48.388;16.210;2022-11-25T09:04:17;8.85;;;6.10;;
45684;SDS011;46836;48.388;16.210;2022-11-25T09:06:44;7.50;;;5.97;;
45684;SDS011;46836;48.388;16.210;2022-11-25T09:09:11;63.42;;;20.40;;
45684;SDS011;46836;48.388;16.210;2022-11-25T09:11:38;37.92;;;12.40;;
45684;SDS011;46836;48.388;16.210;2022-11-25T09:14:06;12.77;;;6.50;;
45684;SDS011;46836;48.388;16.210;2022-11-25T09:16:33;10.02;;;6.68;;
45684;SDS011;46836;48.388;16.210;2022-11-25T09:19:00;13.25;;;7.22;;
45684;SDS011;46836;48.388;16.210;2022-11-25T09:21:27;9.77;;;7.13;;
45684;SDS011;46836;48.388;16.210;2022-11-25T09:23:55;19.20;;;8.43;;
45684;SDS011;46836;48.388;16.210;2022-11-25T09:26:23;15.27;;;9.65;;
45684;SDS011;46836;48.388;16.210;2022-11-25T09:28:53;48.10;;;14.57;;
45684;SDS011;46836;48.388;16.210;2022-11-25T09:31:21;25.02;;;9.85;;
45684;SDS011;46836;48.388;16.210;2022-11-25T09:33:48;15.73;;;9.40;;
45684;SDS011;46836;48.388;16.210;2022-11-25T09:36:16;23.23;;;9.90;;
45684;SDS011;46836;48.388;16.210;2022-11-25T09:38:45;10.15;;;7.13;;
45684;SDS011;46836;48.388;16.210;2022-11-25T09:41:35;30.00;;;10.73;;
45684;SDS011;46836;48.388;16.210;2022-11-25T09:47:59;12.18;;;7.50;;
45684;SDS011;46836;48.388;16.210;2022-11-25T09:50:51;12.98;;;7.60;;
45684;SDS011;46836;48.388;16.210;2022-11-25T09:56:50;8.98;;;5.78;;
45684;SDS011;46836;48.388;16.210;2022-11-25T09:59:46;16.67;;;8.18;;
45684;SDS011;46836;48.388;16.210;2022-11-25T10:02:26;13.82;;;7.82;;
45684;SDS011;46836;48.388;16.210;2022-11-25T10:05:02;9.75;;;6.00;;
45684;SDS011;46836;48.388;16.210;2022-11-25T10:07:41;12.82;;;6.72;;
45684;SDS011;46836;48.388;16.210;2022-11-25T10:10:21;11.05;;;6.55;;
45684;SDS011;46836;48.388;16.210;2022-11-25T10:12:52;13.93;;;7.40;;
45684;SDS011;46836;48.388;16.210;2022-11-25T10:15:24;13.18;;;7.10;;
45684;SDS011;46836;48.388;16.210;2022-11-25T10:17:53;8.90;;;7.22;;
45684;SDS011;46836;48.388;16.210;2022-11-25T10:20:29;14.98;;;7.93;;
45684;SDS011;46836;48.388;16.210;2022-11-25T10:23:04;11.60;;;5.93;;
45684;SDS011;46836;48.388;16.210;2022-11-25T10:25:38;8.95;;;5.88;;
45684;SDS011;46836;48.388;16.210;2022-11-25T10:33:49;8.23;;;4.13;;
45684;SDS011;46836;48.388;16.210;2022-11-25T10:38:59;18.80;;;4.97;;
45684;SDS011;46836;48.388;16.210;2022-11-25T10:42:05;7.15;;;4.68;;
45684;SDS011;46836;48.388;16.210;2022-11-25T10:44:40;7.32;;;4.40;;
45684;SDS011;46836;48.388;16.210;2022-11-25T10:52:31;6.72;;;4.70;;
45684;SDS011;46836;48.388;16.210;2022-11-25T10:55:09;8.68;;;4.78;;
45684;SDS011;46836;48.388;16.210;2022-11-25T10:57:42;6.15;;;5.28;;
45684;SDS011;46836;48.388;16.210;2022-11-25T11:00:29;12.80;;;5.18;;
45684;SDS011;46836;48.388;16.210;2022-11-25T11:03:14;5.13;;;4.35;;
45684;SDS011;46836;48.388;16.210;2022-11-25T11:05:52;8.40;;;4.75;;
45684;SDS011;46836;48.388;16.210;2022-11-25T11:11:08;5.40;;;4.60;;
45684;SDS011;46836;48.388;16.210;2022-11-25T11:13:47;6.35;;;4.72;;
45684;SDS011;46836;48.388;16.210;2022-11-25T11:16:23;6.85;;;5.05;;
45684;SDS011;46836;48.388;16.210;2022-11-25T11:19:22;7.70;;;5.13;;
45684;SDS011;46836;48.388;16.210;2022-11-25T11:21:51;5.43;;;4.15;;
45684;SDS011;46836;48.388;16.210;2022-11-25T11:24:27;6.05;;;4.38;;
45684;SDS011;46836;48.388;16.210;2022-11-25T11:27:02;11.90;;;4.47;;
45684;SDS011;46836;48.388;16.210;2022-11-25T11:29:31;11.13;;;5.65;;
45684;SDS011;46836;48.388;16.210;2022-11-25T11:32:00;18.42;;;6.38;;
45684;SDS011;46836;48.388;16.210;2022-11-25T11:37:17;8.43;;;5.15;;
45684;SDS011;46836;48.388;16.210;2022-11-25T11:40:12;8.23;;;5.03;;
45684;SDS011;46836;48.388;16.210;2022-11-25T11:42:50;15.68;;;5.78;;
45684;SDS011;46836;48.388;16.210;2022-11-25T11:56:35;10.68;;;5.20;;
45684;SDS011;46836;48.388;16.210;2022-11-25T12:10:44;9.07;;;4.75;;
45684;SDS011;46836;48.388;16.210;2022-11-25T12:15:56;10.50;;;5.15;;
45684;SDS011;46836;48.388;16.210;2022-11-25T12:21:01;7.68;;;4.35;;
45684;SDS011;46836;48.388;16.210;2022-11-25T12:23:44;7.97;;;4.10;;
45684;SDS011;46836;48.388;16.210;2022-11-25T12:26:19;8.23;;;4.20;;
45684;SDS011;46836;48.388;16.210;2022-11-25T12:29:02;4.60;;;3.28;;
45684;SDS011;46836;48.388;16.210;2022-11-25T12:31:38;6.90;;;2.92;;
45684;SDS011;46836;48.388;16.210;2022-11-25T12:36:39;7.97;;;4.22;;
45684;SDS011;46836;48.388;16.210;2022-11-25T12:47:35;20.17;;;6.10;;
45684;SDS011;46836;48.388;16.210;2022-11-25T12:50:02;33.35;;;8.68;;
45684;SDS011;46836;48.388;16.210;2022-11-25T12:52:41;4.95;;;2.45;;
45684;SDS011;46836;48.388;16.210;2022-11-25T12:55:28;8.30;;;3.30;;
45684;SDS011;46836;48.388;16.210;2022-11-25T13:09:36;6.18;;;2.72;;
45684;SDS011;46836;48.388;16.210;2022-11-25T13:12:26;2.92;;;2.35;;
45684;SDS011;46836;48.388;16.210;2022-11-25T13:17:44;9.30;;;4.45;;
45684;SDS011;46836;48.388;16.210;2022-11-25T13:25:34;10.95;;;4.63;;
45684;SDS011;46836;48.388;16.210;2022-11-25T13:36:19;5.28;;;2.35;;
45684;SDS011;46836;48.388;16.210;2022-11-25T13:46:44;5.40;;;3.08;;
45684;SDS011;46836;48.388;16.210;2022-11-25T13:49:25;6.38;;;3.53;;
45684;SDS011;46836;48.388;16.210;2022-11-25T13:54:48;4.97;;;3.25;;
45684;SDS011;46836;48.388;16.210;2022-11-25T13:57:26;6.00;;;3.10;;
45684;SDS011;46836;48.388;16.210;2022-11-25T14:02:36;4.45;;;3.00;;
45684;SDS011;46836;48.388;16.210;2022-11-25T14:19:33;6.72;;;4.93;;
45684;SDS011;46836;48.388;16.210;2022-11-25T14:25:23;8.73;;;5.35;;
45684;SDS011;46836;48.388;16.210;2022-11-25T14:27:57;6.55;;;4.78;;
45684;SDS011;46836;48.388;16.210;2022-11-25T14:30:34;16.17;;;5.35;;
45684;SDS011;46836;48.388;16.210;2022-11-25T14:33:19;8.07;;;4.93;;
45684;SDS011;46836;48.388;16.210;2022-11-25T14:35:52;5.88;;;4.93;;
45684;SDS011;46836;48.388;16.210;2022-11-25T14:38:48;5.22;;;4.63;;
45684;SDS011;46836;48.388;16.210;2022-11-25T14:41:51;8.52;;;4.15;;
45684;SDS011;46836;48.388;16.210;2022-11-25T14:44:29;8.25;;;4.60;;
45684;SDS011;46836;48.388;16.210;2022-11-25T14:47:04;8.13;;;5.20;;
45684;SDS011;46836;48.388;16.210;2022-11-25T14:49:41;7.68;;;4.93;;
45684;SDS011;46836;48.388;16.210;2022-11-25T14:52:47;8.07;;;6.03;;
45684;SDS011;46836;48.388;16.210;2022-11-25T14:55:27;8.38;;;5.57;;
45684;SDS011;46836;48.388;16.210;2022-11-25T14:57:56;9.95;;;6.28;;
45684;SDS011;46836;48.388;16.210;2022-11-25T15:00:24;8.02;;;6.35;;
45684;SDS011;46836;48.388;16.210;2022-11-25T15:02:54;12.80;;;7.97;;
45684;SDS011;46836;48.388;16.210;2022-11-25T15:05:31;14.40;;;8.40;;
45684;SDS011;46836;48.388;16.210;2022-11-25T15:08:09;13.30;;;7.68;;
45684;SDS011;46836;48.388;16.210;2022-11-25T15:10:41;10.57;;;7.10;;
45684;SDS011;46836;48.388;16.210;2022-11-25T15:13:36;9.82;;;6.32;;
45684;SDS011;46836;48.388;16.210;2022-11-25T15:16:19;10.60;;;7.10;;
45684;SDS011;46836;48.388;16.210;2022-11-25T15:21:20;8.18;;;5.90;;
45684;SDS011;46836;48.388;16.210;2022-11-25T15:23:59;6.75;;;4.90;;
45684;SDS011;46836;48.388;16.210;2022-11-25T15:26:30;9.75;;;5.93;;
45684;SDS011;46836;48.388;16.210;2022-11-25T15:29:00;9.55;;;6.20;;
45684;SDS011;46836;48.388;16.210;2022-11-25T15:31:30;6.57;;;5.00;;
45684;SDS011;46836;48.388;16.210;2022-11-25T15:34:00;10.45;;;6.30;;
45684;SDS011;46836;48.388;16.210;2022-11-25T15:36:30;11.18;;;5.78;;
45684;SDS011;46836;48.388;16.210;2022-11-25T15:41:53;6.18;;;4.78;;
45684;SDS011;46836;48.388;16.210;2022-11-25T15:44:24;7.03;;;5.00;;
45684;SDS011;46836;48.388;16.210;2022-11-25T15:46:58;8.63;;;4.95;;
45684;SDS011;46836;48.388;16.210;2022-11-25T15:49:28;7.60;;;5.00;;
45684;SDS011;46836;48.388;16.210;2022-11-25T15:52:12;8.75;;;4.88;;
45684;SDS011;46836;48.388;16.210;2022-11-25T15:54:49;9.52;;;4.75;;
45684;SDS011;46836;48.388;16.210;2022-11-25T16:07:39;17.95;;;9.15;;
45684;SDS011;46836;48.388;16.210;2022-11-25T16:10:24;18.75;;;9.40;;
45684;SDS011;46836;48.388;16.210;2022-11-25T16:21:13;17.55;;;11.90;;
45684;SDS011;46836;48.388;16.210;2022-11-25T16:23:49;14.98;;;11.15;;
45684;SDS011;46836;48.388;16.210;2022-11-25T16:26:24;13.50;;;10.05;;
45684;SDS011;46836;48.388;16.210;2022-11-25T16:28:55;16.83;;;10.30;;
45684;SDS011;46836;48.388;16.210;2022-11-25T16:31:24;20.48;;;11.65;;
45684;SDS011;46836;48.388;16.210;2022-11-25T16:34:00;23.92;;;12.18;;
45684;SDS011;46836;48.388;16.210;2022-11-25T16:36:45;16.73;;;11.70;;
45684;SDS011;46836;48.388;16.210;2022-11-25T16:39:12;17.77;;;9.90;;
45684;SDS011;46836;48.388;16.210;2022-11-25T16:41:40;14.07;;;8.85;;
45684;SDS011;46836;48.388;16.210;2022-11-25T16:44:18;12.73;;;9.50;;
45684;SDS011;46836;48.388;16.210;2022-11-25T16:46:48;12.98;;;9.40;;
45684;SDS011;46836;48.388;16.210;2022-11-25T16:49:17;16.92;;;9.45;;
45684;SDS011;46836;48.388;16.210;2022-11-25T16:51:45;15.23;;;11.25;;
45684;SDS011;46836;48.388;16.210;2022-11-25T16:54:12;12.63;;;9.82;;
45684;SDS011;46836;48.388;16.210;2022-11-25T16:56:40;16.40;;;10.23;;
45684;SDS011;46836;48.388;16.210;2022-11-25T16:59:18;15.18;;;10.00;;
45684;SDS011;46836;48.388;16.210;2022-11-25T17:01:52;23.27;;;11.13;;
45684;SDS011;46836;48.388;16.210;2022-11-25T17:04:20;17.08;;;10.60;;
45684;SDS011;46836;48.388;16.210;2022-11-25T17:06:48;12.57;;;10.07;;
45684;SDS011;46836;48.388;16.210;2022-11-25T17:09:35;10.20;;;7.97;;
45684;SDS011;46836;48.388;16.210;2022-11-25T17:12:03;20.70;;;9.27;;
45684;SDS011;46836;48.388;16.210;2022-11-25T17:14:33;11.45;;;8.13;;
45684;SDS011;46836;48.388;16.210;2022-11-25T17:17:04;11.85;;;9.20;;
45684;SDS011;46836;48.388;16.210;2022-11-25T17:19:32;17.42;;;12.05;;
45684;SDS011;46836;48.388;16.210;2022-11-25T17:21:59;16.02;;;11.85;;
45684;SDS011;46836;48.388;16.210;2022-11-25T17:24:28;26.42;;;15.60;;
45684;SDS011;46836;48.388;16.210;2022-11-25T17:29:29;32.00;;;17.30;;
45684;SDS011;46836;48.388;16.210;2022-11-25T17:32:01;33.85;;;17.27;;
45684;SDS011;46836;48.388;16.210;2022-11-25T17:34:30;28.35;;;13.85;;
45684;SDS011;46836;48.388;16.210;2022-11-25T17:37:20;26.88;;;14.63;;
45684;SDS011;46836;48.388;16.210;2022-11-25T17:39:50;24.42;;;14.20;;
45684;SDS011;46836;48.388;16.210;2022-11-25T17:42:24;21.08;;;12.82;;